createdAt,value
2022-07-26T00:04:04.414Z,71.31
2022-07-26T00:09:06.854Z,71.62
2022-07-26T00:14:09.576Z,71.57
2022-07-26T00:19:11.892Z,71.83
2022-07-26T00:24:14.213Z,72.13
2022-07-26T00:29:16.506Z,71.68
2022-07-26T00:34:18.864Z,72.12
2022-07-26T00:39:21.161Z,72.52
2022-07-26T00:44:23.469Z,72.55
2022-07-26T00:49:25.823Z,72.57
2022-07-26T00:54:28.565Z,72.54
2022-07-26T00:59:31.003Z,73.01
2022-07-26T01:04:33.590Z,72.97
2022-07-26T01:09:36.226Z,72.84
2022-07-26T01:14:38.562Z,73.09
2022-07-26T01:19:41.528Z,73.14
2022-07-26T01:24:43.887Z,72.86
2022-07-26T01:29:46.246Z,73.25
2022-07-26T01:34:48.664Z,73.20
2022-07-26T01:39:52.015Z,73.07
2022-07-26T01:44:54.274Z,73.54
2022-07-26T01:49:56.788Z,73.66
2022-07-26T01:54:59.478Z,73.32
2022-07-26T02:00:01.886Z,73.48
2022-07-26T02:05:09.720Z,73.38
2022-07-26T02:10:13.019Z,73.55
2022-07-26T02:15:17.338Z,73.76
2022-07-26T02:20:19.653Z,73.70
2022-07-26T02:25:21.956Z,74.12
2022-07-26T02:30:24.422Z,74.49
2022-07-26T02:35:26.719Z,74.71
2022-07-26T02:40:29.288Z,74.63
2022-07-26T02:45:31.616Z,74.65
2022-07-26T02:50:34.039Z,74.70
2022-07-26T02:55:36.265Z,75.05
2022-07-26T03:00:38.515Z,75.40
2022-07-26T03:05:41.016Z,75.61
2022-07-26T03:10:43.431Z,75.60
2022-07-26T03:15:45.893Z,75.61
2022-07-26T03:20:48.353Z,75.57
2022-07-26T03:25:50.699Z,75.67
2022-07-26T03:30:53.132Z,75.71
2022-07-26T03:35:55.472Z,75.81
2022-07-26T03:40:57.880Z,75.92
2022-07-26T03:46:00.155Z,75.75
2022-07-26T03:51:02.693Z,75.56
2022-07-26T03:56:23.454Z,75.57
2022-07-26T04:01:26.201Z,75.34
2022-07-26T04:06:29.255Z,75.08
2022-07-26T04:11:32.354Z,75.10
2022-07-26T04:16:36.956Z,74.73
2022-07-26T04:21:41.473Z,74.76
2022-07-26T04:26:43.766Z,74.26
2022-07-26T04:31:46.123Z,73.68
2022-07-26T04:36:48.522Z,73.88
2022-07-26T04:41:52.486Z,72.95
2022-07-26T04:46:54.778Z,73.13
2022-07-26T04:51:59.402Z,72.86
2022-07-26T04:57:01.914Z,72.71
2022-07-26T05:02:04.399Z,73.17
2022-07-26T05:07:06.732Z,73.21
2022-07-26T05:12:10.218Z,73.19
2022-07-26T05:17:12.584Z,72.83
2022-07-26T05:22:20.211Z,72.73
2022-07-26T05:27:22.633Z,72.62
2022-07-26T05:32:25.100Z,72.65
2022-07-26T05:37:27.667Z,72.28
2022-07-26T05:42:30.478Z,72.27
2022-07-26T05:47:33.012Z,71.39
2022-07-26T05:52:35.405Z,71.59
2022-07-26T05:57:41.756Z,71.71
2022-07-26T06:02:44.149Z,70.74
2022-07-26T06:07:46.497Z,70.93
2022-07-26T06:12:48.756Z,70.64
2022-07-26T06:17:51.020Z,70.44
2022-07-26T06:22:53.290Z,69.65
2022-07-26T06:27:55.795Z,69.61
2022-07-26T06:32:58.224Z,68.98
2022-07-26T06:38:00.589Z,69.30
2022-07-26T06:43:04.770Z,68.45
2022-07-26T06:48:07.542Z,68.65
2022-07-26T06:53:09.878Z,67.66
2022-07-26T06:58:12.283Z,67.60
2022-07-26T07:03:14.614Z,67.68
2022-07-26T07:08:17.241Z,67.22
2022-07-26T07:13:20.354Z,66.38
2022-07-26T07:18:22.720Z,64.79
2022-07-26T07:23:25.133Z,64.45
2022-07-26T07:28:27.726Z,64.99
2022-07-26T07:33:32.100Z,64.38
2022-07-26T07:38:39.222Z,63.14
2022-07-26T07:43:45.292Z,62.15
2022-07-26T07:48:47.859Z,60.99
2022-07-26T07:53:56.797Z,62.04
2022-07-26T07:58:59.844Z,61.44
2022-07-26T08:04:02.362Z,60.66
2022-07-26T08:09:06.379Z,61.01
2022-07-26T08:14:08.978Z,60.63
2022-07-26T08:19:12.201Z,61.20
2022-07-26T08:24:14.915Z,60.60
2022-07-26T08:29:20.792Z,59.88
2022-07-26T08:34:23.488Z,60.01
2022-07-26T08:39:25.866Z,59.22
2022-07-26T08:44:28.352Z,59.58
2022-07-26T08:49:30.686Z,59.44
2022-07-26T08:54:33.826Z,59.48
2022-07-26T08:59:36.155Z,57.84
2022-07-26T09:04:45.165Z,57.34
2022-07-26T09:10:11.199Z,58.22
2022-07-26T09:15:23.095Z,57.63
2022-07-26T09:20:28.637Z,56.29
2022-07-26T09:25:42.396Z,56.48
2022-07-26T09:30:55.478Z,55.90
2022-07-26T09:36:07.940Z,55.68
2022-07-26T09:41:20.756Z,54.61
2022-07-26T09:46:26.330Z,54.89
2022-07-26T09:51:55.208Z,54.15
2022-07-26T09:56:59.453Z,52.04
2022-07-26T10:02:01.971Z,52.27
2022-07-26T10:07:04.661Z,53.26
2022-07-26T10:12:09.257Z,51.86
2022-07-26T10:17:31.707Z,51.80
2022-07-26T10:22:50.714Z,51.29
2022-07-26T10:27:58.059Z,52.53
2022-07-26T10:33:14.008Z,52.13
2022-07-26T10:38:22.409Z,51.52
2022-07-26T10:43:41.782Z,52.76
2022-07-26T10:49:06.818Z,52.85
2022-07-26T10:54:11.511Z,52.70
2022-07-26T10:59:20.288Z,51.78
2022-07-26T11:04:35.350Z,51.36
2022-07-26T11:09:38.423Z,50.81
2022-07-26T11:14:44.967Z,50.85
2022-07-26T11:19:50.618Z,51.25
2022-07-26T11:24:52.970Z,50.06
2022-07-26T11:29:55.407Z,51.19
2022-07-26T11:35:05.002Z,51.62
2022-07-26T11:40:07.987Z,51.55
2022-07-26T11:45:13.902Z,51.26
2022-07-26T11:50:30.880Z,50.63
2022-07-26T11:55:33.295Z,50.59
2022-07-26T12:00:35.683Z,50.98
2022-07-26T12:05:38.224Z,52.17
2022-07-26T12:10:40.589Z,52.09
2022-07-26T12:15:51.381Z,52.45
2022-07-26T12:21:05.664Z,51.75
2022-07-26T12:26:26.580Z,52.49
2022-07-26T12:31:31.320Z,52.37
2022-07-26T12:36:34.297Z,53.06
2022-07-26T12:41:40.668Z,54.06
2022-07-26T12:46:45.282Z,53.91
2022-07-26T12:51:47.822Z,53.51
2022-07-26T12:56:50.325Z,53.72
2022-07-26T13:01:53.244Z,53.41
2022-07-26T13:06:55.625Z,53.68
2022-07-26T13:11:57.937Z,54.19
2022-07-26T13:17:01.086Z,54.02
2022-07-26T13:22:05.567Z,54.03
2022-07-26T13:27:10.500Z,52.73
2022-07-26T13:32:13.388Z,52.72
2022-07-26T13:37:15.811Z,51.65
2022-07-26T13:42:19.670Z,51.99
2022-07-26T13:47:22.081Z,52.05
2022-07-26T13:52:24.608Z,50.55
2022-07-26T13:57:47.030Z,51.03
2022-07-26T14:02:49.568Z,50.36
2022-07-26T14:07:52.196Z,50.44
2022-07-26T14:12:55.097Z,50.31
2022-07-26T14:17:57.467Z,52.50
2022-07-26T14:23:01.879Z,52.67
2022-07-26T14:38:50.387Z,54.82
2022-07-26T14:43:55.656Z,54.69
2022-07-26T14:48:58.337Z,53.39
2022-07-26T14:54:00.802Z,53.91
2022-07-26T14:59:03.231Z,54.47
2022-07-26T15:04:05.683Z,55.46
2022-07-26T15:09:08.047Z,56.62
2022-07-26T15:14:11.038Z,56.92
2022-07-26T15:19:13.761Z,57.90
2022-07-26T15:24:16.272Z,57.84
2022-07-26T15:29:18.729Z,58.15
2022-07-26T15:34:21.433Z,58.03
2022-07-26T15:39:23.938Z,57.47
2022-07-26T15:44:26.475Z,57.50
2022-07-26T15:49:28.923Z,57.90
2022-07-26T15:54:31.491Z,57.76
2022-07-26T15:59:33.833Z,57.42
2022-07-26T16:04:36.255Z,57.94
2022-07-26T16:09:38.582Z,57.83
2022-07-26T16:14:41.184Z,57.71
2022-07-26T16:19:43.658Z,57.75
2022-07-26T16:24:46.140Z,57.76
2022-07-26T16:29:52.101Z,58.06
2022-07-26T16:34:54.983Z,58.96
2022-07-26T16:39:57.408Z,59.33
2022-07-26T16:44:59.788Z,60.06
2022-07-26T16:50:02.718Z,60.22
2022-07-26T16:55:11.032Z,60.24
2022-07-26T17:00:16.287Z,60.76
2022-07-26T17:05:19.891Z,60.70
2022-07-26T17:10:22.457Z,60.29
2022-07-26T17:15:24.871Z,60.43
2022-07-26T17:20:27.442Z,60.68
2022-07-26T17:25:29.972Z,60.99
2022-07-26T17:30:32.666Z,61.49
2022-07-26T17:35:35.141Z,60.71
2022-07-26T17:40:38.569Z,61.62
2022-07-26T17:45:41.575Z,61.91
2022-07-26T17:50:44.143Z,62.02
2022-07-26T17:55:46.564Z,62.54
2022-07-26T18:00:49.388Z,62.42
2022-07-26T18:05:52.324Z,63.01
2022-07-26T18:10:55.928Z,63.14
2022-07-26T18:16:01.787Z,63.09
2022-07-26T18:21:06.867Z,61.69
2022-07-26T18:26:09.510Z,63.64
2022-07-26T18:31:12.014Z,64.18
2022-07-26T18:36:14.396Z,63.92
2022-07-26T18:41:17.293Z,64.54
2022-07-26T18:46:19.752Z,64.28
2022-07-26T18:51:22.450Z,64.48
2022-07-26T18:56:29.368Z,64.81
2022-07-26T19:01:32.341Z,65.08
2022-07-26T19:06:38.614Z,64.96
2022-07-26T19:11:41.096Z,65.62
2022-07-26T19:16:48.941Z,66.01
2022-07-26T19:21:54.261Z,65.97
2022-07-26T19:26:56.761Z,65.97
2022-07-26T19:32:00.776Z,66.50
2022-07-26T19:37:03.709Z,66.79
2022-07-26T19:42:06.169Z,66.82
2022-07-26T19:47:08.797Z,67.11
2022-07-26T19:52:11.800Z,67.74
2022-07-26T19:57:14.547Z,67.57
2022-07-26T20:02:18.279Z,67.77
2022-07-26T20:07:20.744Z,68.27
2022-07-26T20:12:23.760Z,68.49
2022-07-26T20:17:26.519Z,68.25
2022-07-26T20:22:29.155Z,68.44
2022-07-26T20:27:31.641Z,68.32
2022-07-26T20:32:34.123Z,68.50
2022-07-26T20:37:40.081Z,68.67
2022-07-26T20:42:44.231Z,68.60
2022-07-26T20:47:53.358Z,69.35
2022-07-26T20:52:55.820Z,69.70
2022-07-26T20:57:58.703Z,69.90
2022-07-26T21:03:01.146Z,69.77
2022-07-26T21:08:03.626Z,69.94
2022-07-26T21:13:06.128Z,70.09
2022-07-26T21:18:09.326Z,70.16
2022-07-26T21:23:17.782Z,70.28
2022-07-26T21:28:21.716Z,70.38
2022-07-26T21:33:26.936Z,70.50
2022-07-26T21:38:34.628Z,70.80
2022-07-26T21:43:37.052Z,70.78
2022-07-26T21:48:39.629Z,70.95
2022-07-26T21:53:43.770Z,71.15
2022-07-26T21:58:46.889Z,71.14
2022-07-26T22:03:49.469Z,71.33
2022-07-26T22:08:51.866Z,71.10
2022-07-26T22:13:54.274Z,71.17
2022-07-26T22:18:56.632Z,71.68
2022-07-26T22:23:58.983Z,71.59
2022-07-26T22:29:01.358Z,71.50
2022-07-26T22:34:03.816Z,71.98
2022-07-26T22:39:06.167Z,71.79
2022-07-26T22:44:11.527Z,71.83
2022-07-26T22:49:14.222Z,72.06
2022-07-26T22:54:20.562Z,72.12
2022-07-26T22:59:25.551Z,72.22
2022-07-26T23:04:27.952Z,72.19
2022-07-26T23:09:30.375Z,72.05
2022-07-26T23:14:32.837Z,72.35
2022-07-26T23:19:35.109Z,72.81
2022-07-26T23:24:37.439Z,72.53
2022-07-26T23:29:42.892Z,72.80
2022-07-26T23:34:45.324Z,72.58
2022-07-26T23:39:47.648Z,72.98
2022-07-26T23:44:49.951Z,72.92
2022-07-26T23:49:52.853Z,72.73
2022-07-26T23:54:55.282Z,72.84
2022-07-26T23:59:57.721Z,72.72
